Time;durP1;ratioP1;P1;durP2;ratioP2;P2;SDS_P1;SDS_P2;PMS_P1;PMS_P2;Temp;Humidity;BMP_temperature;BMP_pressure;BME280_temperature;BME280_humidity;BME280_pressure;Samples;Min_cycle;Max_cycle;Signal;HPM_P1;HPM_P2
2022/02/04 00:04:55;;;;;;;14.77;13.35;;;;;22.30;100138.00;;;;2054429;28;20211;-45
2022/02/04 00:06:13;;;;;;;14.20;12.02;;;;;22.30;100136.00;;;;2044205;28;20587;-45
2022/02/04 00:20:20;;;;;;;13.23;11.40;;;;;22.30;100142.00;;;;2045937;28;20212;-46
2022/02/04 00:23:55;;;;;;;13.00;11.70;;;;;22.20;100138.00;;;;2046182;28;20580;-46
2022/02/04 00:24:56;;;;;;;12.77;11.48;;;;;22.30;100136.00;;;;2046125;28;20693;-45
2022/02/04 00:26:04;;;;;;;12.43;11.15;;;;;22.20;100134.00;;;;2046456;28;20592;-45
2022/02/04 00:27:14;;;;;;;11.20;10.10;;;;;22.20;100134.00;;;;2046424;28;20267;-45
2022/02/04 00:29:07;;;;;;;11.73;10.57;;;;;22.20;100137.00;;;;2046678;28;20247;-45
2022/02/04 00:29:52;;;;;;;12.48;11.27;;;;;22.20;100143.00;;;;2053445;28;20239;-45
2022/02/04 00:31:13;;;;;;;12.00;10.73;;;;;22.20;100139.00;;;;2053629;28;20219;-45
2022/02/04 00:32:17;;;;;;;12.30;11.00;;;;;22.20;100143.00;;;;2057687;28;20219;-45
2022/02/04 00:33:18;;;;;;;10.45;9.45;;;;;22.20;100145.00;;;;2053136;28;20219;-45
2022/02/04 00:34:21;;;;;;;11.57;10.37;;;;;22.20;100149.00;;;;2054176;28;20243;-45
2022/02/04 00:35:32;;;;;;;12.38;11.10;;;;;22.20;100152.00;;;;2054452;28;20223;-45
2022/02/04 00:38:56;;;;;;;11.65;10.50;;;;;22.20;100152.00;;;;2054075;28;20212;-45
2022/02/04 00:40:07;;;;;;;10.93;9.93;;;;;22.20;100152.00;;;;2061286;28;20293;-47
2022/02/04 00:41:10;;;;;;;11.23;10.10;;;;;22.10;100150.00;;;;2059680;28;20215;-45
2022/02/04 00:42:11;;;;;;;12.13;9.80;;;;;22.20;100147.00;;;;2054320;28;20244;-45
2022/02/04 00:43:14;;;;;;;11.00;9.88;;;;;22.10;100154.00;;;;2054477;28;20226;-45
2022/02/04 00:44:27;;;;;;;10.63;9.63;;;;;22.10;100146.00;;;;2054121;28;20216;-45
2022/02/04 00:46:08;;;;;;;11.27;10.18;;;;;22.10;100140.00;;;;2054106;28;20585;-50
2022/02/04 00:47:09;;;;;;;10.85;9.75;;;;;22.10;100138.00;;;;2054026;28;20219;-45
2022/02/04 00:48:32;;;;;;;11.23;10.13;;;;;22.10;100130.00;;;;2053913;28;20211;-44
2022/02/04 00:49:46;;;;;;;10.88;9.77;;;;;22.10;100145.00;;;;2054127;28;20219;-45
2022/02/04 00:50:58;;;;;;;10.82;9.82;;;;;22.10;100135.00;;;;2052755;28;20215;-45
2022/02/04 00:53:09;;;;;;;11.23;10.20;;;;;22.10;100142.00;;;;2053245;28;20223;-51
2022/02/04 00:55:48;;;;;;;9.50;8.60;;;;;22.10;100133.00;;;;2044963;28;20306;-45
2022/02/04 01:25:53;;;;;;;9.93;8.93;;;;;22.00;100126.00;;;;2054080;28;20293;-46
2022/02/04 01:26:48;;;;;;;9.10;8.20;;;;;21.90;100126.00;;;;2054261;28;20224;-45
2022/02/04 01:27:48;;;;;;;9.33;8.53;;;;;21.90;100124.00;;;;2055725;28;20215;-44
2022/02/04 01:28:49;;;;;;;8.53;7.63;;;;;21.90;100121.00;;;;2055922;28;20203;-44
2022/02/04 01:30:56;;;;;;;8.20;7.50;;;;;21.90;100127.00;;;;2055063;28;20262;-45
2022/02/04 01:31:57;;;;;;;8.30;7.60;;;;;21.90;100124.00;;;;2059321;28;20634;-45
2022/02/04 01:32:57;;;;;;;8.93;8.10;;;;;21.90;100130.00;;;;2055299;28;20478;-45
2022/02/04 01:33:57;;;;;;;8.43;7.73;;;;;21.90;100138.00;;;;2055858;28;20223;-45
2022/02/04 01:34:58;;;;;;;8.57;7.67;;;;;21.90;100127.00;;;;2055755;28;20583;-45
2022/02/04 01:35:58;;;;;;;8.07;7.37;;;;;21.90;100118.00;;;;2055614;28;20278;-45
2022/02/04 01:36:58;;;;;;;8.80;7.93;;;;;21.90;100126.00;;;;2055649;28;20230;-45
2022/02/04 01:37:59;;;;;;;7.40;6.70;;;;;21.90;100128.00;;;;2055692;28;20759;-45
2022/02/04 01:38:59;;;;;;;8.20;7.50;;;;;21.90;100124.00;;;;2055739;28;20692;-45
2022/02/04 01:39:59;;;;;;;8.33;7.43;;;;;21.90;100128.00;;;;2055578;28;20991;-45
2022/02/04 01:41:00;;;;;;;7.97;7.27;;;;;21.90;100123.00;;;;2054554;28;20228;-45
2022/02/04 01:42:00;;;;;;;8.00;7.20;;;;;21.90;100132.00;;;;2055544;28;20255;-45
2022/02/04 01:43:00;;;;;;;7.80;7.10;;;;;21.90;100122.00;;;;2058254;28;20223;-45
2022/02/04 01:44:01;;;;;;;7.87;7.23;;;;;21.90;100126.00;;;;2063354;28;20219;-44
2022/02/04 01:45:01;;;;;;;8.60;7.90;;;;;21.80;100116.00;;;;2063790;28;20230;-45
2022/02/04 01:46:03;;;;;;;8.27;7.57;;;;;21.90;100116.00;;;;2063725;28;20758;-45
2022/02/04 01:47:04;;;;;;;8.50;7.72;;;;;21.80;100117.00;;;;2062755;28;20297;-45
2022/02/04 01:48:04;;;;;;;8.00;7.30;;;;;21.80;100119.00;;;;2062841;28;20266;-45
2022/02/04 01:49:05;;;;;;;7.37;6.67;;;;;21.80;100120.00;;;;2062506;28;20222;-45
2022/02/04 01:50:05;;;;;;;7.90;7.10;;;;;21.80;100119.00;;;;2055072;28;20212;-45
2022/02/04 01:51:07;;;;;;;7.60;6.90;;;;;21.80;100113.00;;;;2054467;28;20212;-45
2022/02/04 01:52:08;;;;;;;8.00;7.30;;;;;21.80;100107.00;;;;2054771;28;20207;-45
2022/02/04 01:53:08;;;;;;;7.67;7.00;;;;;21.80;100115.00;;;;2054527;28;20207;-46
2022/02/04 01:54:08;;;;;;;8.03;7.33;;;;;21.80;100113.00;;;;2054538;28;20204;-45
2022/02/04 01:55:09;;;;;;;7.47;6.80;;;;;21.80;100103.00;;;;2055232;28;20235;-45
2022/02/04 01:56:11;;;;;;;8.10;7.40;;;;;21.80;100102.00;;;;2054373;28;20222;-45
2022/02/04 01:57:11;;;;;;;7.43;6.82;;;;;21.80;100105.00;;;;2054361;28;20642;-45
2022/02/04 01:58:11;;;;;;;7.50;6.90;;;;;21.80;100108.00;;;;2054327;28;20274;-45
2022/02/04 01:59:12;;;;;;;7.77;7.07;;;;;21.80;100107.00;;;;2055073;28;20223;-45
2022/02/04 02:00:13;;;;;;;8.00;7.27;;;;;21.80;100105.00;;;;2054658;28;20226;-45
2022/02/04 02:01:13;;;;;;;7.40;6.80;;;;;21.80;100102.00;;;;2055975;28;20227;-45
2022/02/04 02:02:14;;;;;;;7.83;7.20;;;;;21.80;100103.00;;;;2055603;28;20214;-45
2022/02/04 02:03:14;;;;;;;7.23;6.53;;;;;21.80;100105.00;;;;2055235;28;20228;-45
2022/02/04 02:04:15;;;;;;;7.53;6.83;;;;;21.80;100102.00;;;;2055335;28;20615;-44
2022/02/04 02:05:15;;;;;;;8.00;7.20;;;;;21.80;100100.00;;;;2054876;28;20230;-45
2022/02/04 02:06:43;;;;;;;6.83;6.23;;;;;21.80;100103.00;;;;2056779;28;20509;-45
2022/02/04 02:07:47;;;;;;;7.72;6.93;;;;;21.80;100093.00;;;;2053679;28;20223;-44
2022/02/04 02:08:48;;;;;;;7.68;6.97;;;;;21.80;100094.00;;;;2063288;28;20621;-45
2022/02/04 02:09:59;;;;;;;7.73;7.03;;;;;21.70;100092.00;;;;2046747;28;20216;-45
2022/02/04 02:10:59;;;;;;;7.55;6.95;;;;;21.70;100079.00;;;;2047427;28;20315;-44
2022/02/04 02:12:04;;;;;;;7.50;6.80;;;;;21.70;100086.00;;;;2054484;28;20223;-44
2022/02/04 02:14:09;;;;;;;7.90;7.30;;;;;21.70;100076.00;;;;2055440;28;21169;-44
2022/02/04 02:35:24;;;;;;;6.82;6.13;;;;;21.60;100067.00;;;;2055715;28;20219;-45
2022/02/04 02:36:35;;;;;;;6.50;5.90;;;;;21.60;100073.00;;;;2052071;28;20212;-45
2022/02/04 02:39:17;;;;;;;6.95;6.35;;;;;21.60;100078.00;;;;2055328;28;20292;-45
2022/02/04 02:42:01;;;;;;;7.30;6.70;;;;;21.60;100070.00;;;;2054132;28;20704;-45
2022/02/04 02:50:12;;;;;;;5.82;5.32;;;;;21.60;100077.00;;;;2053750;28;20215;-45
2022/02/04 02:53:07;;;;;;;6.57;5.97;;;;;21.60;100081.00;;;;2058335;28;20223;-45
2022/02/04 03:01:27;;;;;;;6.22;5.72;;;;;21.60;100082.00;;;;2060765;28;20293;-44
2022/02/04 03:02:28;;;;;;;6.03;5.43;;;;;21.50;100077.00;;;;2062953;28;20209;-45
2022/02/04 03:03:31;;;;;;;7.93;5.53;;;;;21.50;100081.00;;;;2061833;28;20210;-45
2022/02/04 03:04:31;;;;;;;6.65;6.05;;;;;21.50;100065.00;;;;2062650;28;20221;-45
2022/02/04 03:05:32;;;;;;;6.00;5.50;;;;;21.50;100066.00;;;;2055985;28;20672;-45
2022/02/04 03:06:32;;;;;;;6.03;5.53;;;;;21.60;100063.00;;;;2050226;28;20218;-46
2022/02/04 03:07:32;;;;;;;6.33;5.77;;;;;21.50;100066.00;;;;2055089;28;20226;-45
2022/02/04 03:08:33;;;;;;;6.57;6.00;;;;;21.50;100067.00;;;;2055233;28;20234;-45
2022/02/04 03:09:33;;;;;;;6.47;5.87;;;;;21.50;100076.00;;;;2055124;28;20225;-45
2022/02/04 03:10:33;;;;;;;6.50;6.00;;;;;21.50;100065.00;;;;2053948;28;20211;-44
2022/02/04 03:11:34;;;;;;;6.03;5.53;;;;;21.50;100077.00;;;;2054335;28;20211;-46
2022/02/04 03:12:36;;;;;;;6.17;5.57;;;;;21.50;100078.00;;;;2060433;28;20298;-44
2022/02/04 03:13:36;;;;;;;6.72;5.38;;;;;21.50;100070.00;;;;2063011;28;20560;-44
2022/02/04 03:14:36;;;;;;;5.70;5.20;;;;;21.50;100077.00;;;;2062613;28;20272;-44
2022/02/04 03:15:37;;;;;;;5.67;5.17;;;;;21.50;100078.00;;;;2063003;28;20223;-45
2022/02/04 03:16:38;;;;;;;6.20;5.70;;;;;21.50;100075.00;;;;2062391;28;20621;-44
2022/02/04 03:17:40;;;;;;;6.37;5.63;;;;;21.50;100078.00;;;;2062289;28;20207;-45
2022/02/04 03:18:43;;;;;;;6.22;5.72;;;;;21.50;100078.00;;;;2062848;28;20231;-45
2022/02/04 03:19:48;;;;;;;5.90;5.40;;;;;21.50;100077.00;;;;2061148;28;20221;-44
2022/02/04 03:20:51;;;;;;;6.00;5.40;;;;;21.50;100079.00;;;;2053900;28;20204;-45
2022/02/04 03:21:52;;;;;;;6.15;5.65;;;;;21.50;100070.00;;;;2054809;28;20298;-45
2022/02/04 03:22:54;;;;;;;5.63;5.13;;;;;21.50;100069.00;;;;2054952;28;20215;-45
2022/02/04 03:24:02;;;;;;;6.10;5.50;;;;;21.50;100078.00;;;;2054870;28;20215;-45
2022/02/04 03:25:07;;;;;;;5.60;5.10;;;;;21.50;100066.00;;;;2053466;28;20730;-45
2022/02/04 03:26:19;;;;;;;5.90;5.20;;;;;21.50;100063.00;;;;2054977;28;20230;-45
2022/02/04 03:27:19;;;;;;;5.78;5.28;;;;;21.50;100066.00;;;;2053900;28;20215;-45
2022/02/04 03:28:26;;;;;;;4.57;4.17;;;;;21.30;100059.00;;;;2054429;28;20758;-45
2022/02/04 03:29:32;;;;;;;5.57;5.05;;;;;21.50;100065.00;;;;2054287;28;20212;-45
2022/02/04 03:30:36;;;;;;;5.40;4.90;;;;;21.50;100061.00;;;;2053657;28;20207;-45
2022/02/04 03:31:44;;;;;;;5.75;5.25;;;;;21.50;100054.00;;;;2054294;28;20212;-45
2022/02/04 03:32:51;;;;;;;4.97;4.57;;;;;21.50;100058.00;;;;2054436;28;20218;-45
2022/02/04 03:33:51;;;;;;;5.43;5.03;;;;;21.50;100053.00;;;;2053815;28;20282;-50
2022/02/04 03:34:52;;;;;;;6.10;5.60;;;;;21.50;100042.00;;;;2058375;28;20877;-46
2022/02/04 03:35:52;;;;;;;6.07;5.57;;;;;21.50;100041.00;;;;2062624;28;20265;-47
2022/02/04 03:36:52;;;;;;;5.10;4.63;;;;;21.50;100043.00;;;;2056762;28;20219;-45
2022/02/04 03:37:54;;;;;;;4.87;4.47;;;;;21.50;100037.00;;;;2060700;28;20226;-45
2022/02/04 03:38:54;;;;;;;5.40;4.90;;;;;21.50;100038.00;;;;2061937;28;20210;-45
2022/02/04 03:39:54;;;;;;;5.53;5.03;;;;;21.40;100046.00;;;;2062398;28;20218;-46
2022/02/04 03:40:55;;;;;;;4.60;4.20;;;;;21.40;100036.00;;;;2061233;28;20237;-45
2022/02/04 03:41:55;;;;;;;4.90;4.40;;;;;21.40;100044.00;;;;2062331;28;20225;-45
2022/02/04 03:42:55;;;;;;;5.20;4.80;;;;;21.50;100043.00;;;;2062269;28;20706;-46
2022/02/04 03:43:56;;;;;;;5.50;5.00;;;;;21.40;100043.00;;;;2062382;28;20676;-45
2022/02/04 03:44:56;;;;;;;5.80;5.20;;;;;21.40;100040.00;;;;2062394;28;20621;-46
2022/02/04 03:45:56;;;;;;;5.10;4.60;;;;;21.40;100046.00;;;;2062270;28;20320;-45
2022/02/04 03:46:57;;;;;;;4.63;4.23;;;;;21.40;100046.00;;;;2062128;28;20222;-45
2022/02/04 03:47:57;;;;;;;4.43;4.03;;;;;21.40;100043.00;;;;2062133;28;20218;-45
2022/02/04 03:48:57;;;;;;;5.30;4.80;;;;;21.40;100045.00;;;;2062296;28;20242;-45
2022/02/04 03:49:58;;;;;;;5.47;5.00;;;;;21.40;100037.00;;;;2061652;28;20219;-45
2022/02/04 03:50:58;;;;;;;4.90;4.50;;;;;21.40;100037.00;;;;2060868;28;20277;-44
2022/02/04 03:51:58;;;;;;;5.37;4.87;;;;;21.40;100033.00;;;;2062125;28;20247;-45
2022/02/04 03:52:59;;;;;;;5.53;5.03;;;;;21.40;100037.00;;;;2061901;28;20691;-45
2022/02/04 03:54:00;;;;;;;4.85;4.45;;;;;21.40;100026.00;;;;2061975;28;20211;-46
2022/02/04 03:55:00;;;;;;;6.00;4.80;;;;;21.40;100033.00;;;;2061671;28;20233;-45
2022/02/04 03:56:00;;;;;;;4.93;4.50;;;;;21.40;100027.00;;;;2062319;28;20211;-45
2022/02/04 03:57:01;;;;;;;5.50;5.00;;;;;21.40;100021.00;;;;2062752;28;20227;-45
2022/02/04 03:58:01;;;;;;;5.60;5.10;;;;;21.40;100024.00;;;;2062275;28;20234;-45
2022/02/04 03:59:01;;;;;;;5.53;5.03;;;;;21.40;100028.00;;;;2062652;28;20265;-45
2022/02/04 04:00:06;;;;;;;4.10;3.70;;;;;21.40;100031.00;;;;2062697;28;20327;-45
2022/02/04 04:01:07;;;;;;;4.55;4.22;;;;;21.40;100022.00;;;;2061336;28;20310;-45
2022/02/04 04:02:07;;;;;;;4.90;4.50;;;;;21.40;100021.00;;;;2062585;28;20203;-45
2022/02/04 04:03:07;;;;;;;5.13;4.37;;;;;21.40;100018.00;;;;2062581;28;20295;-45
2022/02/04 04:04:08;;;;;;;4.50;4.10;;;;;21.40;100021.00;;;;2062455;28;20211;-45
2022/02/04 04:05:09;;;;;;;4.60;4.20;;;;;21.40;100018.00;;;;2062389;28;20696;-45
2022/02/04 04:06:11;;;;;;;4.75;4.35;;;;;21.40;100018.00;;;;2062302;28;20215;-45
2022/02/04 04:07:11;;;;;;;4.35;4.05;;;;;21.40;100020.00;;;;2062594;28;20306;-45
2022/02/04 04:08:14;;;;;;;4.40;4.00;;;;;21.40;100013.00;;;;2062481;28;20695;-45
2022/02/04 04:09:14;;;;;;;4.57;4.18;;;;;21.40;100021.00;;;;2062235;28;20219;-45
2022/02/04 04:10:22;;;;;;;4.63;4.23;;;;;21.40;100016.00;;;;2061945;28;20714;-45
2022/02/04 04:11:23;;;;;;;4.40;4.07;;;;;21.40;100020.00;;;;2062115;28;20242;-45
2022/02/04 04:12:24;;;;;;;4.80;4.30;;;;;21.40;100023.00;;;;2062501;28;20223;-45
2022/02/04 04:13:26;;;;;;;4.93;4.53;;;;;21.40;100024.00;;;;2062044;28;20251;-45
2022/02/04 04:14:26;;;;;;;4.72;4.32;;;;;21.40;100020.00;;;;2062312;28;20702;-45
2022/02/04 04:15:27;;;;;;;4.70;4.30;;;;;21.30;100019.00;;;;2057758;28;20219;-45
2022/02/04 04:16:27;;;;;;;3.87;3.57;;;;;21.40;100019.00;;;;2054446;28;20249;-45
2022/02/04 04:17:31;;;;;;;4.07;3.77;;;;;21.40;100018.00;;;;2054107;28;20219;-48
2022/02/04 04:18:31;;;;;;;4.45;4.05;;;;;21.30;100018.00;;;;2054204;28;20219;-45
2022/02/04 04:19:32;;;;;;;4.50;4.10;;;;;21.30;100016.00;;;;2053745;28;20926;-46
2022/02/04 04:20:32;;;;;;;4.33;3.90;;;;;21.30;100020.00;;;;2052734;28;20632;-45
2022/02/04 04:21:33;;;;;;;4.40;4.00;;;;;21.30;100020.00;;;;2054202;28;20639;-45
2022/02/04 04:22:33;;;;;;;4.27;3.87;;;;;21.30;100013.00;;;;2054454;28;20642;-45
2022/02/04 04:23:33;;;;;;;4.10;3.70;;;;;21.30;100022.00;;;;2054371;28;20587;-45
2022/02/04 04:24:34;;;;;;;3.83;3.53;;;;;21.30;100018.00;;;;2054403;28;20579;-45
2022/02/04 04:25:34;;;;;;;4.40;4.10;;;;;21.30;100017.00;;;;2054533;28;20661;-45
2022/02/04 04:26:34;;;;;;;3.97;3.67;;;;;21.30;100016.00;;;;2054383;28;20592;-45
2022/02/04 04:27:35;;;;;;;4.00;3.70;;;;;21.30;100013.00;;;;2060818;28;20652;-45
2022/02/04 04:28:35;;;;;;;3.63;3.33;;;;;21.30;100016.00;;;;2057129;28;20219;-45
2022/02/04 04:29:35;;;;;;;4.63;4.23;;;;;21.30;100021.00;;;;2054288;28;20206;-45
2022/02/04 04:30:36;;;;;;;4.23;3.83;;;;;21.30;100018.00;;;;2053548;28;20576;-45
2022/02/04 04:31:36;;;;;;;4.37;3.67;;;;;21.30;100020.00;;;;2054043;28;20653;-45
2022/02/04 04:32:36;;;;;;;3.97;3.67;;;;;21.30;100016.00;;;;2055623;28;20215;-44
2022/02/04 04:33:37;;;;;;;4.20;3.80;;;;;21.30;100019.00;;;;2062456;28;20215;-44
2022/02/04 04:34:38;;;;;;;3.90;3.60;;;;;21.30;100026.00;;;;2062377;28;20219;-44
2022/02/04 04:35:39;;;;;;;3.72;3.42;;;;;21.30;100033.00;;;;2062431;28;20251;-45
2022/02/04 04:36:39;;;;;;;4.47;4.07;;;;;21.30;100028.00;;;;2061617;28;20727;-44
2022/02/04 04:39:09;;;;;;;4.03;3.72;;;;;21.30;100020.00;;;;2061905;28;20207;-44
2022/02/04 05:25:43;;;;;;;4.18;3.88;;;;;21.30;100037.00;;;;2045135;28;20299;-45
2022/02/04 05:29:04;;;;;;;3.75;3.35;;;;;21.10;99997.00;;;;2055650;28;20216;-45
2022/02/04 05:30:05;;;;;;;3.28;2.97;;;;;21.10;99995.00;;;;2055578;28;20219;-45
2022/02/04 05:31:05;;;;;;;3.07;2.80;;;;;21.10;99990.00;;;;2054554;28;20216;-45
2022/02/04 05:32:06;;;;;;;3.00;2.70;;;;;21.10;99982.00;;;;2055551;28;20466;-45
2022/02/04 05:33:06;;;;;;;3.43;3.13;;;;;21.10;99983.00;;;;2054719;28;20223;-45
2022/02/04 05:34:07;;;;;;;3.30;2.87;;;;;21.10;99988.00;;;;2055548;28;20466;-45
2022/02/04 05:35:08;;;;;;;2.73;2.53;;;;;21.10;99981.00;;;;2055631;28;20700;-45
2022/02/04 05:36:09;;;;;;;2.73;2.53;;;;;21.10;99984.00;;;;2055470;28;20219;-45
2022/02/04 05:37:11;;;;;;;3.58;3.10;;;;;21.10;99993.00;;;;2055283;28;20224;-45
2022/02/04 05:38:13;;;;;;;3.30;3.00;;;;;21.10;99999.00;;;;2055542;28;20216;-45
2022/02/04 05:39:18;;;;;;;2.85;2.65;;;;;21.10;99995.00;;;;2055409;28;20211;-45
2022/02/04 05:40:22;;;;;;;2.92;2.65;;;;;21.10;100002.00;;;;2055126;28;20211;-45
2022/02/04 05:41:30;;;;;;;6.32;3.00;;;;;21.10;99999.00;;;;2054991;28;20286;-45
2022/02/04 05:42:35;;;;;;;3.40;3.10;;;;;21.00;99996.00;;;;2060242;28;20820;-45
2022/02/04 05:43:38;;;;;;;3.00;2.80;;;;;21.10;100000.00;;;;2062735;28;20687;-45
2022/02/04 05:44:42;;;;;;;2.90;2.70;;;;;21.10;99997.00;;;;2063274;28;20215;-45
2022/02/04 05:45:51;;;;;;;3.00;2.80;;;;;21.10;99999.00;;;;2063246;28;20215;-45
2022/02/04 05:46:58;;;;;;;3.20;2.90;;;;;21.10;99997.00;;;;2063494;28;20725;-45
2022/02/04 05:48:03;;;;;;;3.00;2.70;;;;;21.10;99997.00;;;;2062563;28;20215;-45
2022/02/04 05:49:04;;;;;;;2.90;2.67;;;;;21.10;99999.00;;;;2059979;28;20226;-45
2022/02/04 05:50:20;;;;;;;2.90;2.63;;;;;21.10;99997.00;;;;2063245;28;20218;-45
2022/02/04 05:51:46;;;;;;;3.20;3.00;;;;;21.10;100001.00;;;;2062997;28;20207;-45
2022/02/04 05:53:10;;;;;;;2.75;2.55;;;;;21.10;99990.00;;;;2052788;28;20214;-45
2022/02/04 05:54:18;;;;;;;3.17;2.92;;;;;21.10;99992.00;;;;2054599;28;20267;-45
2022/02/04 05:55:36;;;;;;;3.10;2.70;;;;;21.10;99991.00;;;;2050537;28;20215;-45
2022/02/04 05:57:55;;;;;;;2.80;2.60;;;;;21.10;99987.00;;;;2062510;28;20219;-46
2022/02/04 05:59:07;;;;;;;2.53;2.33;;;;;21.10;99988.00;;;;2056855;28;20203;-45
2022/02/04 06:00:27;;;;;;;2.88;2.50;;;;;21.10;99990.00;;;;2062821;28;20226;-45
2022/02/04 06:01:39;;;;;;;2.78;2.30;;;;;21.10;99978.00;;;;2063041;28;20703;-45
2022/02/04 06:05:13;;;;;;;3.45;2.45;;;;;21.10;99973.00;;;;2062451;28;20596;-45
2022/02/04 06:07:49;;;;;;;2.65;2.45;;;;;21.10;99979.00;;;;2058058;28;21700;-45
2022/02/04 06:09:21;;;;;;;2.70;2.50;;;;;21.10;99967.00;;;;2057942;28;20222;-45
2022/02/04 06:14:55;;;;;;;2.40;2.10;;;;;21.10;99965.00;;;;2063005;28;20207;-45
2022/02/04 06:22:26;;;;;;;2.00;1.80;;;;;21.20;99970.00;;;;2060100;28;20604;-45
2022/02/04 06:23:26;;;;;;;2.97;1.70;;;;;21.20;99970.00;;;;2063369;28;20213;-45
2022/02/04 06:24:27;;;;;;;2.20;2.00;;;;;21.20;99977.00;;;;2063075;28;20214;-45
2022/02/04 06:25:27;;;;;;;1.97;1.87;;;;;21.20;99976.00;;;;2063035;28;20207;-45
2022/02/04 06:26:27;;;;;;;4.50;1.70;;;;;21.20;99966.00;;;;2062143;28;20207;-45
2022/02/04 06:27:27;;;;;;;1.90;1.70;;;;;21.20;99966.00;;;;2054296;28;20247;-45
2022/02/04 06:28:28;;;;;;;2.20;1.77;;;;;21.20;99964.00;;;;2062463;28;20210;-45
2022/02/04 06:29:28;;;;;;;1.80;1.70;;;;;21.20;99960.00;;;;2062495;28;20210;-45
2022/02/04 06:30:29;;;;;;;1.90;1.70;;;;;21.20;99964.00;;;;2050749;28;20299;-45
2022/02/04 06:31:29;;;;;;;2.07;1.87;;;;;21.20;99965.00;;;;2054986;28;20258;-45
2022/02/04 06:32:30;;;;;;;2.30;1.90;;;;;21.20;99969.00;;;;2055215;28;20208;-45
2022/02/04 06:33:30;;;;;;;2.50;2.30;;;;;21.30;99963.00;;;;2054951;28;20204;-45
2022/02/04 06:34:30;;;;;;;1.90;1.80;;;;;21.30;99956.00;;;;2054018;28;21096;-45
2022/02/04 06:35:31;;;;;;;1.97;1.70;;;;;21.30;99962.00;;;;2054487;28;20207;-44
2022/02/04 06:36:31;;;;;;;2.00;1.60;;;;;21.30;99949.00;;;;2055177;28;20264;-45
2022/02/04 06:37:31;;;;;;;2.43;1.80;;;;;21.30;99968.00;;;;2054986;28;20250;-45
2022/02/04 06:38:32;;;;;;;1.80;1.70;;;;;21.30;99966.00;;;;2055128;28;20212;-45
2022/02/04 06:39:32;;;;;;;1.70;1.60;;;;;21.30;99962.00;;;;2055185;28;20215;-45
2022/02/04 06:40:32;;;;;;;1.90;1.67;;;;;21.30;99952.00;;;;2054215;28;20744;-45
2022/02/04 06:41:33;;;;;;;1.70;1.60;;;;;21.30;99960.00;;;;2054459;28;20739;-45
2022/02/04 06:42:33;;;;;;;2.07;1.70;;;;;21.30;99960.00;;;;2055095;28;20718;-45
2022/02/04 06:43:35;;;;;;;1.80;1.70;;;;;21.30;99956.00;;;;2055155;28;20212;-45
2022/02/04 06:44:36;;;;;;;2.00;1.75;;;;;21.30;99951.00;;;;2055099;28;20719;-44
2022/02/04 06:45:37;;;;;;;1.53;1.43;;;;;21.30;99954.00;;;;2055168;28;20315;-45
2022/02/04 06:46:37;;;;;;;1.77;1.57;;;;;21.40;99962.00;;;;2054094;28;20682;-45
2022/02/04 06:47:37;;;;;;;2.20;1.50;;;;;21.30;99964.00;;;;2054840;28;20459;-45
2022/02/04 06:48:38;;;;;;;1.50;1.40;;;;;21.30;99961.00;;;;2053505;28;20223;-45
2022/02/04 06:49:38;;;;;;;1.77;1.60;;;;;21.40;99961.00;;;;2053860;28;20219;-45
2022/02/04 06:50:38;;;;;;;2.23;2.03;;;;;21.40;99965.00;;;;2053742;28;20211;-44
2022/02/04 06:51:39;;;;;;;1.93;1.67;;;;;21.40;99963.00;;;;2054640;28;20294;-45
2022/02/04 06:52:39;;;;;;;1.67;1.40;;;;;21.40;99957.00;;;;2054356;28;20276;-45
2022/02/04 06:53:39;;;;;;;1.70;1.60;;;;;21.40;99956.00;;;;2054596;28;20232;-46
2022/02/04 06:54:40;;;;;;;1.40;1.30;;;;;21.40;99961.00;;;;2054171;28;20250;-45
2022/02/04 06:55:40;;;;;;;1.60;1.50;;;;;21.40;99964.00;;;;2053920;28;20254;-45
2022/02/04 06:56:41;;;;;;;1.57;1.13;;;;;21.40;99970.00;;;;2054112;28;20234;-45
2022/02/04 06:57:47;;;;;;;2.00;1.77;;;;;21.40;99968.00;;;;2054346;28;20247;-46
2022/02/04 06:58:48;;;;;;;2.00;1.67;;;;;21.30;99965.00;;;;2062226;28;20222;-45
2022/02/04 06:59:50;;;;;;;1.97;1.50;;;;;21.40;99964.00;;;;2062508;28;20219;-46
2022/02/04 07:00:50;;;;;;;4.57;1.80;;;;;21.40;99962.00;;;;2061646;28;20214;-45
2022/02/04 07:01:51;;;;;;;6.63;1.70;;;;;21.40;99968.00;;;;2062300;28;20219;-45
2022/02/04 07:02:52;;;;;;;5.80;2.00;;;;;21.40;99959.00;;;;2061933;28;20273;-45
2022/02/04 07:03:52;;;;;;;2.05;1.50;;;;;21.50;99968.00;;;;2061176;28;20215;-47
2022/02/04 07:04:53;;;;;;;5.43;1.87;;;;;21.50;99972.00;;;;2062201;28;20219;-45
2022/02/04 07:05:56;;;;;;;5.70;1.80;;;;;21.50;99969.00;;;;2062261;28;20227;-46
2022/02/04 07:06:58;;;;;;;5.97;1.60;;;;;21.50;99968.00;;;;2062547;28;20215;-46
2022/02/04 07:08:08;;;;;;;2.67;1.75;;;;;21.50;99969.00;;;;2060419;28;20234;-46
2022/02/04 07:09:26;;;;;;;1.20;1.05;;;;;21.50;99976.00;;;;2054365;28;20237;-47
2022/02/04 07:10:41;;;;;;;1.60;1.50;;;;;21.50;99977.00;;;;2044883;28;20212;-46
2022/02/04 07:13:11;;;;;;;1.67;1.20;;;;;21.60;99984.00;;;;2054173;28;20219;-45
2022/02/04 07:15:46;;;;;;;2.23;1.37;;;;;21.60;99978.00;;;;2054225;28;20230;-45
2022/02/04 07:19:44;;;;;;;1.70;1.50;;;;;21.60;99976.00;;;;2054360;28;20219;-46
2022/02/04 07:20:41;;;;;;;2.17;1.70;;;;;21.60;99985.00;;;;2052962;28;20211;-46
2022/02/04 07:21:41;;;;;;;3.50;1.80;;;;;21.60;99988.00;;;;2054207;28;20223;-46
2022/02/04 07:22:41;;;;;;;1.50;1.40;;;;;21.60;99981.00;;;;2054627;28;20224;-45
2022/02/04 07:23:42;;;;;;;2.17;1.50;;;;;21.70;99981.00;;;;2054064;28;20251;-45
2022/02/04 07:24:43;;;;;;;2.07;1.50;;;;;21.70;99984.00;;;;2053294;28;20215;-45
2022/02/04 07:25:44;;;;;;;2.47;1.25;;;;;21.70;99984.00;;;;2053760;28;20859;-46
2022/02/04 07:26:44;;;;;;;2.73;1.30;;;;;21.70;99981.00;;;;2054163;28;20222;-46
2022/02/04 07:27:45;;;;;;;1.20;1.10;;;;;21.70;99977.00;;;;2054263;28;20258;-46
2022/02/04 07:28:45;;;;;;;1.95;1.40;;;;;21.70;99973.00;;;;2054035;28;20211;-45
2022/02/04 07:29:48;;;;;;;3.00;1.30;;;;;21.70;99969.00;;;;2054514;28;20274;-46
2022/02/04 07:30:48;;;;;;;2.03;1.25;;;;;21.70;99968.00;;;;2053136;28;20756;-46
2022/02/04 07:31:50;;;;;;;1.63;1.10;;;;;21.70;99971.00;;;;2053932;28;20219;-45
2022/02/04 07:32:59;;;;;;;1.40;1.30;;;;;21.70;99964.00;;;;2051400;28;20683;-46
2022/02/04 07:41:33;;;;;;;2.15;1.33;;;;;21.80;99959.00;;;;2054505;28;20299;-46
2022/02/04 07:42:34;;;;;;;4.80;1.50;;;;;21.70;99954.00;;;;2053869;28;20215;-46
2022/02/04 07:43:34;;;;;;;1.50;1.30;;;;;21.70;99969.00;;;;2059545;28;20203;-46
2022/02/04 07:44:34;;;;;;;2.13;1.20;;;;;21.70;99958.00;;;;2062290;28;20203;-46
2022/02/04 07:45:35;;;;;;;1.30;1.20;;;;;21.70;99954.00;;;;2062577;28;20217;-45
2022/02/04 07:46:35;;;;;;;2.37;1.40;;;;;21.70;99954.00;;;;2062439;28;20261;-45
2022/02/04 07:47:35;;;;;;;4.00;1.20;;;;;21.70;99947.00;;;;2062706;28;20231;-46
2022/02/04 07:48:36;;;;;;;2.03;1.30;;;;;21.60;99945.00;;;;2061898;28;20276;-45
2022/02/04 07:49:36;;;;;;;1.33;1.10;;;;;21.70;99949.00;;;;2052090;28;20211;-45
2022/02/04 07:50:37;;;;;;;1.50;1.20;;;;;21.70;99952.00;;;;2061085;28;20219;-45
2022/02/04 07:51:39;;;;;;;3.00;1.40;;;;;21.70;99954.00;;;;2061950;28;20207;-45
2022/02/04 07:52:40;;;;;;;1.55;1.00;;;;;21.70;99955.00;;;;2051793;28;20269;-45
2022/02/04 07:53:40;;;;;;;1.90;1.20;;;;;21.70;99949.00;;;;2053103;28;20246;-46
2022/02/04 07:54:40;;;;;;;1.43;1.03;;;;;21.70;99956.00;;;;2061632;28;20202;-46
2022/02/04 07:55:41;;;;;;;2.70;1.47;;;;;21.70;99957.00;;;;2061127;28;21137;-45
2022/02/04 07:56:41;;;;;;;3.70;1.90;;;;;21.70;99942.00;;;;2061799;28;20990;-45
2022/02/04 07:57:42;;;;;;;3.10;2.43;;;;;21.70;99941.00;;;;2061445;28;20640;-45
2022/02/04 07:58:45;;;;;;;4.00;2.47;;;;;21.70;99948.00;;;;2062404;28;20588;-46
2022/02/04 07:59:47;;;;;;;3.50;3.10;;;;;21.60;99945.00;;;;2062345;28;20210;-45
2022/02/04 08:00:49;;;;;;;5.43;4.53;;;;;21.70;99948.00;;;;2061537;28;20755;-45
2022/02/04 08:01:50;;;;;;;10.98;8.27;;;;;21.60;99942.00;;;;2062272;28;20723;-45
2022/02/04 08:02:51;;;;;;;11.30;9.23;;;;;21.70;99953.00;;;;2062499;28;20226;-45
2022/02/04 08:04:01;;;;;;;13.80;12.50;;;;;21.70;99944.00;;;;2062649;28;20753;-45
2022/02/04 08:05:04;;;;;;;16.13;14.27;;;;;21.70;99946.00;;;;2059644;28;20218;-47
2022/02/04 08:06:12;;;;;;;15.45;12.85;;;;;21.70;99949.00;;;;2061982;28;20281;-45
2022/02/04 08:07:15;;;;;;;21.08;17.50;;;;;21.70;99947.00;;;;2062524;28;20345;-46